createdAt,value
2023-05-24T00:05:11.013Z,12.60
2023-05-24T00:07:38.433Z,11.23
2023-05-24T00:14:56.644Z,14.23
2023-05-24T00:17:23.371Z,17.13
2023-05-24T00:19:50.264Z,12.73
2023-05-24T00:27:45.538Z,12.57
2023-05-24T00:30:12.489Z,17.67
2023-05-24T00:32:39.306Z,15.75
2023-05-24T00:35:06.285Z,12.85
2023-05-24T00:37:32.981Z,12.45
2023-05-24T00:39:59.786Z,16.73
2023-05-24T00:42:26.546Z,15.80
2023-05-24T00:44:53.220Z,13.95
2023-05-24T00:47:19.953Z,9.93
2023-05-24T00:49:47.068Z,12.25
2023-05-24T00:52:14.145Z,14.23
2023-05-24T00:54:40.917Z,8.73
2023-05-24T00:57:08.046Z,12.18
2023-05-24T00:59:34.812Z,17.40
2023-05-24T01:04:28.184Z,16.00
2023-05-24T01:07:13.351Z,14.82
2023-05-24T01:09:51.003Z,13.02
2023-05-24T01:12:37.436Z,11.40
2023-05-24T01:15:24.253Z,10.57
2023-05-24T01:20:18.243Z,7.38
2023-05-24T01:22:51.709Z,9.65
2023-05-24T01:25:33.477Z,16.75
2023-05-24T01:28:01.774Z,13.82
2023-05-24T01:30:28.852Z,16.40
2023-05-24T01:32:55.810Z,11.77
2023-05-24T01:35:22.552Z,11.43
2023-05-24T01:37:49.160Z,17.02
2023-05-24T01:40:16.017Z,13.57
2023-05-24T01:42:49.059Z,14.00
2023-05-24T01:45:23.210Z,14.48
2023-05-24T01:47:56.111Z,11.00
2023-05-24T01:50:23.862Z,14.13
2023-05-24T01:52:53.578Z,11.23
2023-05-24T01:55:21.042Z,16.45
2023-05-24T02:00:15.138Z,19.50
2023-05-24T02:02:42.229Z,17.50
2023-05-24T02:07:35.679Z,13.02
2023-05-24T02:10:02.472Z,11.27
2023-05-24T02:12:29.204Z,13.23
2023-05-24T02:14:57.301Z,13.48
2023-05-24T02:17:27.045Z,18.63
2023-05-24T02:22:22.287Z,11.15
2023-05-24T02:24:49.116Z,12.73
2023-05-24T02:27:15.868Z,12.85
2023-05-24T02:29:42.702Z,12.27
2023-05-24T02:32:09.487Z,14.10
2023-05-24T02:39:27.874Z,13.80
2023-05-24T02:44:20.090Z,13.40
2023-05-24T02:46:46.914Z,12.00
2023-05-24T02:49:13.949Z,8.63
2023-05-24T02:51:40.778Z,8.93
2023-05-24T02:54:07.423Z,7.18
2023-05-24T02:56:34.791Z,8.40
2023-05-24T02:59:02.911Z,10.23
2023-05-24T03:01:30.334Z,14.57
2023-05-24T03:06:24.123Z,9.27
2023-05-24T03:08:51.850Z,8.57
2023-05-24T03:16:13.993Z,10.40
2023-05-24T03:18:41.139Z,21.75
2023-05-24T03:21:07.867Z,14.80
2023-05-24T03:23:34.722Z,9.88
2023-05-24T03:26:01.416Z,10.50
2023-05-24T03:28:30.191Z,10.50
2023-05-24T03:30:57.658Z,9.90
2023-05-24T03:33:24.296Z,8.80
2023-05-24T03:35:51.128Z,15.38
2023-05-24T03:38:17.785Z,8.93
2023-05-24T03:40:46.987Z,10.52
2023-05-24T03:43:17.780Z,6.15
2023-05-24T03:45:44.520Z,10.77
2023-05-24T03:50:39.403Z,10.88
2023-05-24T03:53:06.270Z,8.02
2023-05-24T03:58:13.687Z,12.38
2023-05-24T04:00:40.902Z,9.25
2023-05-24T04:03:09.110Z,12.38
2023-05-24T04:05:35.873Z,8.75
2023-05-24T04:08:03.123Z,11.15
2023-05-24T04:10:29.935Z,12.15
2023-05-24T04:12:57.537Z,5.97
2023-05-24T04:17:55.264Z,7.90
2023-05-24T04:30:10.974Z,9.20
2023-05-24T04:32:37.797Z,9.02
2023-05-24T04:35:04.698Z,5.60
2023-05-24T04:37:33.057Z,5.70
2023-05-24T04:39:59.823Z,5.07
2023-05-24T04:42:27.506Z,4.85
2023-05-24T04:44:54.244Z,11.48
2023-05-24T04:47:20.967Z,8.35
2023-05-24T04:49:47.646Z,7.53
2023-05-24T04:57:05.244Z,7.28
2023-05-24T04:59:32.054Z,8.45
2023-05-24T05:01:58.824Z,5.25
2023-05-24T05:04:25.601Z,5.93
2023-05-24T05:09:19.108Z,5.40
2023-05-24T05:11:48.668Z,6.50
2023-05-24T05:16:41.418Z,3.42
2023-05-24T05:19:08.200Z,9.73
2023-05-24T05:21:35.127Z,6.38
2023-05-24T05:24:02.002Z,6.13
2023-05-24T05:26:28.886Z,4.43
2023-05-24T05:31:21.812Z,4.78
2023-05-24T05:33:48.585Z,12.68
2023-05-24T05:36:15.642Z,4.85
2023-05-24T05:38:42.526Z,6.50
2023-05-24T05:41:09.360Z,7.28
2023-05-24T05:43:36.068Z,8.50
2023-05-24T05:46:02.786Z,6.28
2023-05-24T05:48:29.483Z,9.02
2023-05-24T05:50:56.567Z,8.90
2023-05-24T05:53:23.405Z,7.05
2023-05-24T05:55:50.014Z,9.23
2023-05-24T05:58:16.758Z,5.10
2023-05-24T06:00:43.677Z,8.35
2023-05-24T06:03:18.914Z,6.57
2023-05-24T06:08:13.577Z,6.65
2023-05-24T06:10:43.362Z,10.63
2023-05-24T06:13:10.170Z,7.43
2023-05-24T06:15:37.880Z,12.50
2023-05-24T06:18:04.533Z,11.85
2023-05-24T06:20:31.548Z,9.25
2023-05-24T06:22:59.082Z,8.77
2023-05-24T06:25:26.266Z,9.43
2023-05-24T06:27:53.027Z,15.43
2023-05-24T06:30:20.792Z,10.65
2023-05-24T06:32:48.665Z,6.85
2023-05-24T06:35:15.571Z,7.40
2023-05-24T06:37:44.098Z,11.75
2023-05-24T06:40:11.340Z,11.95
2023-05-24T06:45:21.178Z,12.52
2023-05-24T06:47:48.547Z,16.90
2023-05-24T06:50:15.325Z,29.45
2023-05-24T06:52:41.959Z,31.55
2023-05-24T06:57:34.530Z,51.10
2023-05-24T07:00:47.907Z,39.88
2023-05-24T07:03:14.820Z,23.52
2023-05-24T07:05:41.743Z,25.17
2023-05-24T07:08:09.461Z,23.00
2023-05-24T07:20:18.501Z,8.45
2023-05-24T07:22:45.480Z,13.23
2023-05-24T07:25:12.242Z,13.05
2023-05-24T07:27:39.045Z,14.25
2023-05-24T07:30:09.503Z,16.33
2023-05-24T07:32:43.653Z,11.63
2023-05-24T07:35:13.194Z,11.15
2023-05-24T07:37:40.510Z,13.00
2023-05-24T07:40:13.405Z,6.97
2023-05-24T07:42:40.315Z,14.50
2023-05-24T07:45:07.561Z,9.35
2023-05-24T07:47:34.667Z,7.43
2023-05-24T07:50:01.388Z,7.22
2023-05-24T07:52:28.230Z,7.55
2023-05-24T07:59:45.803Z,7.45
2023-05-24T08:02:13.830Z,8.90
2023-05-24T08:04:40.546Z,8.40
2023-05-24T08:07:09.487Z,7.10
2023-05-24T08:14:32.869Z,7.85
2023-05-24T08:21:55.636Z,11.93
2023-05-24T08:24:22.845Z,10.00
2023-05-24T08:26:51.823Z,6.32
2023-05-24T08:29:18.728Z,9.52
2023-05-24T08:36:37.558Z,6.88
2023-05-24T08:39:05.182Z,6.13
2023-05-24T08:44:05.151Z,8.93
2023-05-24T08:46:33.245Z,7.90
2023-05-24T08:49:00.900Z,11.20
2023-05-24T08:51:27.766Z,5.35
2023-05-24T08:53:54.638Z,10.10
2023-05-24T09:08:35.798Z,4.65
2023-05-24T09:13:29.859Z,4.18
2023-05-24T09:15:56.707Z,9.63
2023-05-24T09:20:48.985Z,8.65
2023-05-24T09:23:16.336Z,5.32
2023-05-24T09:25:46.746Z,9.02
2023-05-24T09:28:14.903Z,6.97
2023-05-24T09:30:45.763Z,8.95
2023-05-24T09:33:13.711Z,13.77
2023-05-24T09:38:18.962Z,9.73
2023-05-24T09:40:47.106Z,6.95
2023-05-24T09:43:13.817Z,11.00
2023-05-24T09:48:16.720Z,13.55
2023-05-24T09:50:47.643Z,9.93
2023-05-24T09:53:17.276Z,12.02
2023-05-24T09:55:43.970Z,7.55
2023-05-24T09:58:12.990Z,16.27
2023-05-24T10:00:41.663Z,11.25
2023-05-24T10:03:11.682Z,9.65
2023-05-24T10:08:09.562Z,9.77
2023-05-24T10:10:36.591Z,7.97
2023-05-24T10:15:29.625Z,11.18
2023-05-24T10:17:56.873Z,10.65
2023-05-24T10:20:24.258Z,13.80
2023-05-24T10:22:58.126Z,6.45
2023-05-24T10:32:46.208Z,12.32
2023-05-24T10:35:15.126Z,8.93
2023-05-24T10:37:42.894Z,15.90
2023-05-24T10:45:21.432Z,8.43
2023-05-24T10:47:48.223Z,4.85
2023-05-24T10:50:18.530Z,12.13
2023-05-24T10:57:38.562Z,4.60
2023-05-24T11:03:02.436Z,7.10
2023-05-24T11:05:50.557Z,10.20
2023-05-24T11:08:24.029Z,7.20
2023-05-24T11:10:51.475Z,4.85
2023-05-24T11:13:18.964Z,6.68
2023-05-24T11:15:52.081Z,6.70
2023-05-24T11:18:22.323Z,6.45
2023-05-24T11:20:51.865Z,6.28
2023-05-24T11:23:19.272Z,6.35
2023-05-24T11:25:49.393Z,9.35
2023-05-24T11:28:16.540Z,4.57
2023-05-24T11:33:33.442Z,6.88
2023-05-24T11:36:00.319Z,6.53
2023-05-24T11:40:54.053Z,6.50
2023-05-24T11:43:21.922Z,3.78
2023-05-24T11:50:49.543Z,5.68
2023-05-24T11:53:20.255Z,6.38
2023-05-24T11:55:48.854Z,7.97
2023-05-24T11:58:24.898Z,4.35
2023-05-24T12:00:52.119Z,3.83
2023-05-24T12:03:19.312Z,5.22
2023-05-24T12:05:46.121Z,8.43
2023-05-24T12:08:15.523Z,10.70
2023-05-24T12:10:43.195Z,9.52
2023-05-24T12:20:52.297Z,8.38
2023-05-24T12:23:20.210Z,7.50
2023-05-24T12:28:13.005Z,9.07
2023-05-24T12:30:43.644Z,10.65
2023-05-24T12:33:11.108Z,7.22
2023-05-24T12:35:40.495Z,6.75
2023-05-24T12:38:08.962Z,13.15
2023-05-24T12:40:35.655Z,8.60
2023-05-24T12:43:03.074Z,9.35
2023-05-24T12:45:29.824Z,11.32
2023-05-24T12:47:57.797Z,9.10
2023-05-24T12:52:54.610Z,13.00
2023-05-24T12:55:30.393Z,8.20
2023-05-24T12:57:58.107Z,8.57
2023-05-24T13:00:27.657Z,11.13
2023-05-24T13:02:56.926Z,11.70
2023-05-24T13:07:50.786Z,11.55
2023-05-24T13:10:18.143Z,7.75
2023-05-24T13:15:10.744Z,11.77
2023-05-24T13:17:37.552Z,6.95
2023-05-24T13:20:06.978Z,12.20
2023-05-24T13:22:34.661Z,7.55
2023-05-24T13:25:02.754Z,7.78
2023-05-24T13:27:29.741Z,11.40
2023-05-24T13:30:00.873Z,11.60
2023-05-24T13:32:28.427Z,11.15
2023-05-24T13:42:11.869Z,8.95
2023-05-24T13:44:39.178Z,10.27
2023-05-24T13:47:06.065Z,11.77
2023-05-24T13:49:32.761Z,8.07
2023-05-24T13:51:59.466Z,9.85
2023-05-24T13:54:26.540Z,11.50
2023-05-24T13:59:23.107Z,5.90
2023-05-24T14:01:50.003Z,16.52
2023-05-24T14:06:42.561Z,10.40
2023-05-24T14:09:09.659Z,11.25
2023-05-24T14:11:39.670Z,8.27
2023-05-24T14:19:02.288Z,10.93
2023-05-24T14:21:31.144Z,12.07
2023-05-24T14:28:49.189Z,8.30
2023-05-24T14:43:26.365Z,9.57
2023-05-24T14:45:53.674Z,11.00
2023-05-24T14:48:20.682Z,9.75
2023-05-24T14:50:52.466Z,10.48
2023-05-24T14:53:20.312Z,11.10
2023-05-24T14:55:47.261Z,7.18
2023-05-24T14:58:15.500Z,9.55
2023-05-24T15:00:42.714Z,10.30
2023-05-24T15:03:11.450Z,9.48
2023-05-24T15:05:39.263Z,8.32
2023-05-24T15:10:33.549Z,7.90
2023-05-24T15:13:01.501Z,10.65
2023-05-24T15:15:28.774Z,9.30
2023-05-24T15:20:21.552Z,6.93
2023-05-24T15:22:48.286Z,9.65
2023-05-24T15:32:31.889Z,11.65
2023-05-24T15:35:00.514Z,10.20
2023-05-24T15:37:27.592Z,12.55
2023-05-24T15:44:47.088Z,7.90
2023-05-24T15:49:40.436Z,13.88
2023-05-24T15:52:07.465Z,7.97
2023-05-24T15:54:34.430Z,16.60
2023-05-24T15:57:02.103Z,9.88
2023-05-24T15:59:29.003Z,10.80
2023-05-24T16:01:56.696Z,10.13
2023-05-24T16:11:40.484Z,12.13
2023-05-24T16:14:07.310Z,12.43
2023-05-24T16:16:34.006Z,11.63
2023-05-24T16:19:00.722Z,12.70
2023-05-24T16:21:28.870Z,8.15
2023-05-24T16:23:55.739Z,11.18
2023-05-24T16:26:22.861Z,13.55
2023-05-24T16:28:49.998Z,9.63
2023-05-24T16:31:16.733Z,9.00
2023-05-24T16:38:38.072Z,15.68
2023-05-24T16:41:06.174Z,14.95
2023-05-24T16:43:33.269Z,14.52
2023-05-24T16:48:28.802Z,15.10
2023-05-24T16:50:56.847Z,13.27
2023-05-24T16:53:24.720Z,13.52
2023-05-24T16:56:09.728Z,20.02
2023-05-24T17:01:03.729Z,8.95
2023-05-24T17:03:32.272Z,13.02
2023-05-24T17:09:02.126Z,11.32
2023-05-24T17:11:28.845Z,10.00
2023-05-24T17:13:55.846Z,8.35
2023-05-24T17:23:48.279Z,6.88
2023-05-24T17:26:20.753Z,11.25
2023-05-24T17:51:02.115Z,12.30
2023-05-24T17:55:59.424Z,11.77
2023-05-24T17:58:26.271Z,13.07
2023-05-24T18:13:01.154Z,17.30
2023-05-24T18:15:30.912Z,13.68
2023-05-24T18:17:57.828Z,13.57
2023-05-24T18:25:18.173Z,9.65
2023-05-24T18:27:45.165Z,11.48
2023-05-24T18:30:12.688Z,13.40
2023-05-24T18:32:48.875Z,14.07
2023-05-24T18:35:26.927Z,13.40
2023-05-24T18:37:53.711Z,12.10
2023-05-24T18:40:21.332Z,13.00
2023-05-24T18:42:48.117Z,13.48
2023-05-24T18:45:14.957Z,12.88
2023-05-24T18:47:41.686Z,12.90
2023-05-24T18:59:51.942Z,15.63
2023-05-24T19:07:16.010Z,11.38
2023-05-24T19:17:02.547Z,14.23
2023-05-24T19:19:29.686Z,15.77
2023-05-24T19:21:56.355Z,10.90
2023-05-24T19:24:24.363Z,14.68
2023-05-24T19:26:51.148Z,16.05
2023-05-24T19:29:18.207Z,14.98
2023-05-24T19:36:38.113Z,16.63
2023-05-24T19:39:04.937Z,15.90
2023-05-24T19:41:31.654Z,12.73
2023-05-24T19:44:01.627Z,13.82
2023-05-24T19:48:54.193Z,15.00
2023-05-24T19:51:21.382Z,15.20
2023-05-24T19:53:48.037Z,18.35
2023-05-24T19:58:40.564Z,15.93
2023-05-24T20:01:07.385Z,16.58
2023-05-24T20:03:35.347Z,18.10
2023-05-24T20:06:02.473Z,14.52
2023-05-24T20:08:29.394Z,18.80
2023-05-24T20:10:56.757Z,14.70
2023-05-24T20:15:49.001Z,14.30
2023-05-24T20:18:15.905Z,16.30
2023-05-24T20:20:42.669Z,16.02
2023-05-24T20:25:34.940Z,13.40
2023-05-24T20:28:01.680Z,14.05
2023-05-24T20:30:28.457Z,13.38
2023-05-24T20:32:55.220Z,16.00
2023-05-24T20:35:21.991Z,22.25
2023-05-24T20:37:48.783Z,21.73
2023-05-24T20:40:23.054Z,14.70
2023-05-24T20:42:50.011Z,18.13
2023-05-24T20:45:16.909Z,17.95
2023-05-24T20:47:43.714Z,16.30
2023-05-24T20:52:36.464Z,16.08
2023-05-24T20:55:03.242Z,18.58
2023-05-24T20:57:29.952Z,18.02
2023-05-24T20:59:56.757Z,18.30
2023-05-24T21:02:23.583Z,21.40
2023-05-24T21:04:50.740Z,15.20
2023-05-24T21:07:17.553Z,18.77
2023-05-24T21:09:44.347Z,20.90
2023-05-24T21:12:11.249Z,19.48
2023-05-24T21:14:38.072Z,23.58
2023-05-24T21:17:04.897Z,16.75
2023-05-24T21:19:31.803Z,16.50
2023-05-24T21:21:58.605Z,15.88
2023-05-24T21:24:25.287Z,14.80
2023-05-24T21:26:52.147Z,14.85
2023-05-24T21:29:19.511Z,19.63
2023-05-24T21:31:46.541Z,21.85
2023-05-24T21:36:38.700Z,18.15
2023-05-24T21:39:08.548Z,19.67
2023-05-24T21:44:01.920Z,22.33
2023-05-24T21:46:33.721Z,19.13
2023-05-24T21:49:00.867Z,17.63
2023-05-24T21:51:27.646Z,18.35
2023-05-24T21:53:54.407Z,17.35
2023-05-24T22:01:12.027Z,20.70
2023-05-24T22:03:38.831Z,20.50
2023-05-24T22:10:57.165Z,18.70
2023-05-24T22:13:23.975Z,19.70
2023-05-24T22:18:21.208Z,22.90
2023-05-24T22:20:48.082Z,22.35
2023-05-24T22:25:40.393Z,24.10
2023-05-24T22:28:09.322Z,25.67
2023-05-24T22:30:36.436Z,22.65
2023-05-24T22:33:03.355Z,23.98
2023-05-24T22:35:30.112Z,23.33
2023-05-24T22:37:56.842Z,24.15
2023-05-24T22:40:23.545Z,20.23
2023-05-24T22:42:50.200Z,17.83
2023-05-24T22:47:42.658Z,21.40
2023-05-24T22:50:10.009Z,24.10
2023-05-24T22:52:42.500Z,22.17
2023-05-24T22:55:10.983Z,20.20
2023-05-24T22:57:37.814Z,23.35
2023-05-24T23:05:00.303Z,25.58
2023-05-24T23:07:27.328Z,29.00
2023-05-24T23:09:54.826Z,26.30
2023-05-24T23:12:21.561Z,24.20
2023-05-24T23:17:14.220Z,22.30
2023-05-24T23:19:44.431Z,28.45
2023-05-24T23:24:42.439Z,29.73
2023-05-24T23:27:09.360Z,28.50
2023-05-24T23:29:36.044Z,29.77
2023-05-24T23:34:28.182Z,29.15
2023-05-24T23:36:54.974Z,33.70
2023-05-24T23:39:21.681Z,29.40
2023-05-24T23:41:48.432Z,23.80
2023-05-24T23:44:15.146Z,32.20
2023-05-24T23:49:08.135Z,29.88
2023-05-24T23:51:34.992Z,26.33
2023-05-24T23:56:27.216Z,25.00
2023-05-24T23:58:54.084Z,33.00
